sensor_id;sensor_type;location;lat;lon;timestamp;P1;durP1;ratioP1;P2;durP2;ratioP2
42714;SDS011;28351;51.480;5.706;2022-10-16T00:02:05;4.38;;;3.05;;
42714;SDS011;28351;51.480;5.706;2022-10-16T00:04:30;6.15;;;3.10;;
42714;SDS011;28351;51.480;5.706;2022-10-16T00:06:56;5.65;;;3.20;;
42714;SDS011;28351;51.480;5.706;2022-10-16T00:09:22;7.45;;;3.55;;
42714;SDS011;28351;51.480;5.706;2022-10-16T00:11:48;4.45;;;3.00;;
42714;SDS011;28351;51.480;5.706;2022-10-16T00:14:14;4.32;;;2.92;;
42714;SDS011;28351;51.480;5.706;2022-10-16T00:16:40;5.35;;;3.10;;
42714;SDS011;28351;51.480;5.706;2022-10-16T00:19:06;6.78;;;3.20;;
42714;SDS011;28351;51.480;5.706;2022-10-16T00:21:32;3.33;;;2.95;;
42714;SDS011;28351;51.480;5.706;2022-10-16T00:24:05;5.75;;;3.20;;
42714;SDS011;28351;51.480;5.706;2022-10-16T00:26:36;6.07;;;3.10;;
42714;SDS011;28351;51.480;5.706;2022-10-16T00:29:02;4.10;;;2.67;;
42714;SDS011;28351;51.480;5.706;2022-10-16T00:31:29;3.92;;;3.00;;
42714;SDS011;28351;51.480;5.706;2022-10-16T00:33:54;5.07;;;3.03;;
42714;SDS011;28351;51.480;5.706;2022-10-16T00:36:21;4.07;;;2.97;;
42714;SDS011;28351;51.480;5.706;2022-10-16T00:38:52;8.68;;;3.17;;
42714;SDS011;28351;51.480;5.706;2022-10-16T00:41:19;7.68;;;2.80;;
42714;SDS011;28351;51.480;5.706;2022-10-16T00:43:47;3.40;;;2.67;;
42714;SDS011;28351;51.480;5.706;2022-10-16T00:46:29;4.78;;;2.90;;
42714;SDS011;28351;51.480;5.706;2022-10-16T00:49:02;4.72;;;2.60;;
42714;SDS011;28351;51.480;5.706;2022-10-16T00:51:38;4.25;;;2.83;;
42714;SDS011;28351;51.480;5.706;2022-10-16T00:54:14;6.03;;;2.78;;
42714;SDS011;28351;51.480;5.706;2022-10-16T00:56:45;6.13;;;2.20;;
42714;SDS011;28351;51.480;5.706;2022-10-16T00:59:22;4.28;;;2.70;;
42714;SDS011;28351;51.480;5.706;2022-10-16T01:01:52;5.88;;;3.08;;
42714;SDS011;28351;51.480;5.706;2022-10-16T01:04:19;4.38;;;2.65;;
42714;SDS011;28351;51.480;5.706;2022-10-16T01:06:56;4.90;;;2.80;;
42714;SDS011;28351;51.480;5.706;2022-10-16T01:12:15;4.32;;;2.70;;
42714;SDS011;28351;51.480;5.706;2022-10-16T01:14:46;3.53;;;2.70;;
42714;SDS011;28351;51.480;5.706;2022-10-16T01:17:34;3.78;;;2.80;;
42714;SDS011;28351;51.480;5.706;2022-10-16T01:25:16;5.15;;;3.08;;
42714;SDS011;28351;51.480;5.706;2022-10-16T01:27:50;3.33;;;2.47;;
42714;SDS011;28351;51.480;5.706;2022-10-16T01:30:23;4.40;;;2.50;;
42714;SDS011;28351;51.480;5.706;2022-10-16T01:33:00;5.45;;;2.47;;
42714;SDS011;28351;51.480;5.706;2022-10-16T01:35:38;4.60;;;2.63;;
42714;SDS011;28351;51.480;5.706;2022-10-16T01:40:54;3.10;;;2.47;;
42714;SDS011;28351;51.480;5.706;2022-10-16T01:43:26;5.65;;;2.58;;
42714;SDS011;28351;51.480;5.706;2022-10-16T01:46:00;3.17;;;2.47;;
42714;SDS011;28351;51.480;5.706;2022-10-16T01:48:27;2.55;;;2.30;;
42714;SDS011;28351;51.480;5.706;2022-10-16T01:50:59;3.55;;;2.58;;
42714;SDS011;28351;51.480;5.706;2022-10-16T01:53:30;4.75;;;2.90;;
42714;SDS011;28351;51.480;5.706;2022-10-16T01:55:56;5.05;;;2.90;;
42714;SDS011;28351;51.480;5.706;2022-10-16T01:58:23;8.63;;;2.70;;
42714;SDS011;28351;51.480;5.706;2022-10-16T02:00:52;3.75;;;2.47;;
42714;SDS011;28351;51.480;5.706;2022-10-16T02:03:19;4.30;;;2.53;;
42714;SDS011;28351;51.480;5.706;2022-10-16T02:05:47;4.15;;;2.42;;
42714;SDS011;28351;51.480;5.706;2022-10-16T02:08:17;3.10;;;2.05;;
42714;SDS011;28351;51.480;5.706;2022-10-16T02:10:43;3.97;;;2.42;;
42714;SDS011;28351;51.480;5.706;2022-10-16T02:13:11;3.90;;;2.13;;
42714;SDS011;28351;51.480;5.706;2022-10-16T02:15:42;6.82;;;2.40;;
42714;SDS011;28351;51.480;5.706;2022-10-16T02:18:08;4.90;;;2.38;;
42714;SDS011;28351;51.480;5.706;2022-10-16T02:20:55;4.97;;;2.50;;
42714;SDS011;28351;51.480;5.706;2022-10-16T02:23:36;2.95;;;2.25;;
42714;SDS011;28351;51.480;5.706;2022-10-16T02:26:12;2.78;;;1.90;;
42714;SDS011;28351;51.480;5.706;2022-10-16T02:28:47;2.63;;;2.10;;
42714;SDS011;28351;51.480;5.706;2022-10-16T02:31:20;4.18;;;2.05;;
42714;SDS011;28351;51.480;5.706;2022-10-16T02:33:50;4.82;;;2.25;;
42714;SDS011;28351;51.480;5.706;2022-10-16T02:36:17;4.65;;;2.05;;
42714;SDS011;28351;51.480;5.706;2022-10-16T02:38:43;2.25;;;1.92;;
42714;SDS011;28351;51.480;5.706;2022-10-16T02:41:09;2.05;;;1.85;;
42714;SDS011;28351;51.480;5.706;2022-10-16T02:43:35;3.10;;;2.08;;
42714;SDS011;28351;51.480;5.706;2022-10-16T02:46:00;4.03;;;1.92;;
42714;SDS011;28351;51.480;5.706;2022-10-16T02:48:26;5.70;;;1.73;;
42714;SDS011;28351;51.480;5.706;2022-10-16T02:50:52;3.50;;;1.80;;
42714;SDS011;28351;51.480;5.706;2022-10-16T02:53:17;2.45;;;1.88;;
42714;SDS011;28351;51.480;5.706;2022-10-16T02:55:46;4.90;;;2.40;;
42714;SDS011;28351;51.480;5.706;2022-10-16T02:58:11;3.95;;;2.33;;
42714;SDS011;28351;51.480;5.706;2022-10-16T03:00:37;3.30;;;1.88;;
42714;SDS011;28351;51.480;5.706;2022-10-16T03:03:02;3.25;;;2.10;;
42714;SDS011;28351;51.480;5.706;2022-10-16T03:05:28;4.60;;;2.17;;
42714;SDS011;28351;51.480;5.706;2022-10-16T03:07:56;5.25;;;2.20;;
42714;SDS011;28351;51.480;5.706;2022-10-16T03:10:24;4.22;;;2.30;;
42714;SDS011;28351;51.480;5.706;2022-10-16T03:12:50;4.43;;;2.40;;
42714;SDS011;28351;51.480;5.706;2022-10-16T03:15:16;7.78;;;2.38;;
42714;SDS011;28351;51.480;5.706;2022-10-16T03:17:41;3.70;;;2.15;;
42714;SDS011;28351;51.480;5.706;2022-10-16T03:20:08;3.08;;;2.05;;
42714;SDS011;28351;51.480;5.706;2022-10-16T03:22:33;6.75;;;2.30;;
42714;SDS011;28351;51.480;5.706;2022-10-16T03:24:59;4.53;;;2.40;;
42714;SDS011;28351;51.480;5.706;2022-10-16T03:27:25;4.10;;;2.47;;
42714;SDS011;28351;51.480;5.706;2022-10-16T03:29:52;3.88;;;2.53;;
42714;SDS011;28351;51.480;5.706;2022-10-16T03:32:18;2.33;;;1.88;;
42714;SDS011;28351;51.480;5.706;2022-10-16T03:34:46;3.55;;;2.40;;
42714;SDS011;28351;51.480;5.706;2022-10-16T03:37:12;3.40;;;1.98;;
42714;SDS011;28351;51.480;5.706;2022-10-16T03:39:37;2.83;;;2.00;;
42714;SDS011;28351;51.480;5.706;2022-10-16T03:42:03;3.17;;;2.30;;
42714;SDS011;28351;51.480;5.706;2022-10-16T03:44:32;2.97;;;1.98;;
42714;SDS011;28351;51.480;5.706;2022-10-16T03:46:59;4.68;;;2.40;;
42714;SDS011;28351;51.480;5.706;2022-10-16T03:49:25;3.88;;;1.98;;
42714;SDS011;28351;51.480;5.706;2022-10-16T03:51:50;2.88;;;2.10;;
42714;SDS011;28351;51.480;5.706;2022-10-16T03:54:16;2.83;;;2.40;;
42714;SDS011;28351;51.480;5.706;2022-10-16T03:56:42;6.72;;;2.15;;
42714;SDS011;28351;51.480;5.706;2022-10-16T03:59:09;3.80;;;2.28;;
42714;SDS011;28351;51.480;5.706;2022-10-16T04:01:34;3.63;;;1.90;;
42714;SDS011;28351;51.480;5.706;2022-10-16T04:04:00;5.00;;;2.40;;
42714;SDS011;28351;51.480;5.706;2022-10-16T04:06:25;3.28;;;2.00;;
42714;SDS011;28351;51.480;5.706;2022-10-16T04:08:52;3.60;;;2.58;;
42714;SDS011;28351;51.480;5.706;2022-10-16T04:11:18;4.07;;;2.05;;
42714;SDS011;28351;51.480;5.706;2022-10-16T04:13:45;3.85;;;2.20;;
42714;SDS011;28351;51.480;5.706;2022-10-16T04:16:10;3.53;;;1.73;;
42714;SDS011;28351;51.480;5.706;2022-10-16T04:18:36;2.80;;;1.90;;
42714;SDS011;28351;51.480;5.706;2022-10-16T04:21:05;3.50;;;2.10;;
42714;SDS011;28351;51.480;5.706;2022-10-16T04:23:31;2.60;;;2.20;;
42714;SDS011;28351;51.480;5.706;2022-10-16T04:25:57;3.10;;;1.77;;
42714;SDS011;28351;51.480;5.706;2022-10-16T04:28:23;3.22;;;2.15;;
42714;SDS011;28351;51.480;5.706;2022-10-16T04:30:49;4.88;;;2.33;;
42714;SDS011;28351;51.480;5.706;2022-10-16T04:33:14;6.75;;;2.22;;
42714;SDS011;28351;51.480;5.706;2022-10-16T04:35:40;3.70;;;2.40;;
42714;SDS011;28351;51.480;5.706;2022-10-16T04:38:06;3.22;;;2.22;;
42714;SDS011;28351;51.480;5.706;2022-10-16T04:40:33;3.80;;;1.92;;
42714;SDS011;28351;51.480;5.706;2022-10-16T04:43:01;6.75;;;1.88;;
42714;SDS011;28351;51.480;5.706;2022-10-16T04:45:31;3.33;;;1.90;;
42714;SDS011;28351;51.480;5.706;2022-10-16T04:47:57;3.80;;;1.80;;
42714;SDS011;28351;51.480;5.706;2022-10-16T04:50:26;3.63;;;1.95;;
42714;SDS011;28351;51.480;5.706;2022-10-16T04:52:58;2.38;;;1.85;;
42714;SDS011;28351;51.480;5.706;2022-10-16T04:55:25;3.10;;;1.83;;
42714;SDS011;28351;51.480;5.706;2022-10-16T04:57:50;3.17;;;1.90;;
42714;SDS011;28351;51.480;5.706;2022-10-16T05:00:16;3.55;;;2.10;;
42714;SDS011;28351;51.480;5.706;2022-10-16T05:02:42;3.60;;;1.83;;
42714;SDS011;28351;51.480;5.706;2022-10-16T05:05:07;3.60;;;1.90;;
42714;SDS011;28351;51.480;5.706;2022-10-16T05:07:33;6.32;;;1.90;;
42714;SDS011;28351;51.480;5.706;2022-10-16T05:09:59;2.40;;;1.90;;
42714;SDS011;28351;51.480;5.706;2022-10-16T05:12:24;4.32;;;2.08;;
42714;SDS011;28351;51.480;5.706;2022-10-16T05:14:50;4.20;;;2.08;;
42714;SDS011;28351;51.480;5.706;2022-10-16T05:17:15;3.60;;;2.00;;
42714;SDS011;28351;51.480;5.706;2022-10-16T05:19:41;4.43;;;2.00;;
42714;SDS011;28351;51.480;5.706;2022-10-16T05:22:06;3.97;;;2.17;;
42714;SDS011;28351;51.480;5.706;2022-10-16T05:24:32;2.60;;;1.90;;
42714;SDS011;28351;51.480;5.706;2022-10-16T05:27:01;3.65;;;2.38;;
42714;SDS011;28351;51.480;5.706;2022-10-16T05:29:26;7.03;;;2.15;;
42714;SDS011;28351;51.480;5.706;2022-10-16T05:31:52;2.88;;;2.05;;
42714;SDS011;28351;51.480;5.706;2022-10-16T05:34:18;5.53;;;2.28;;
42714;SDS011;28351;51.480;5.706;2022-10-16T05:36:44;3.60;;;2.20;;
42714;SDS011;28351;51.480;5.706;2022-10-16T05:39:10;2.58;;;2.10;;
42714;SDS011;28351;51.480;5.706;2022-10-16T05:41:36;2.60;;;2.05;;
42714;SDS011;28351;51.480;5.706;2022-10-16T05:44:05;2.80;;;1.92;;
42714;SDS011;28351;51.480;5.706;2022-10-16T05:46:31;4.78;;;1.90;;
42714;SDS011;28351;51.480;5.706;2022-10-16T05:48:57;6.13;;;2.13;;
42714;SDS011;28351;51.480;5.706;2022-10-16T05:51:23;3.28;;;2.38;;
42714;SDS011;28351;51.480;5.706;2022-10-16T05:53:48;2.88;;;2.30;;
42714;SDS011;28351;51.480;5.706;2022-10-16T05:56:14;3.20;;;2.08;;
42714;SDS011;28351;51.480;5.706;2022-10-16T05:58:40;6.78;;;2.20;;
42714;SDS011;28351;51.480;5.706;2022-10-16T06:01:10;7.32;;;2.65;;
42714;SDS011;28351;51.480;5.706;2022-10-16T06:03:37;3.33;;;2.38;;
42714;SDS011;28351;51.480;5.706;2022-10-16T06:06:12;3.90;;;2.30;;
42714;SDS011;28351;51.480;5.706;2022-10-16T06:08:40;3.35;;;2.10;;
42714;SDS011;28351;51.480;5.706;2022-10-16T06:11:07;4.43;;;2.47;;
42714;SDS011;28351;51.480;5.706;2022-10-16T06:13:35;3.35;;;2.58;;
42714;SDS011;28351;51.480;5.706;2022-10-16T06:16:01;4.45;;;2.35;;
42714;SDS011;28351;51.480;5.706;2022-10-16T06:18:28;3.90;;;2.40;;
42714;SDS011;28351;51.480;5.706;2022-10-16T06:20:55;3.45;;;2.33;;
42714;SDS011;28351;51.480;5.706;2022-10-16T06:23:21;3.33;;;2.50;;
42714;SDS011;28351;51.480;5.706;2022-10-16T06:25:47;6.00;;;2.65;;
42714;SDS011;28351;51.480;5.706;2022-10-16T06:28:13;8.15;;;2.75;;
42714;SDS011;28351;51.480;5.706;2022-10-16T06:30:40;3.40;;;2.17;;
42714;SDS011;28351;51.480;5.706;2022-10-16T06:33:05;6.07;;;2.67;;
42714;SDS011;28351;51.480;5.706;2022-10-16T06:35:31;3.47;;;2.55;;
42714;SDS011;28351;51.480;5.706;2022-10-16T06:37:57;6.07;;;2.70;;
42714;SDS011;28351;51.480;5.706;2022-10-16T06:40:23;3.53;;;2.45;;
42714;SDS011;28351;51.480;5.706;2022-10-16T06:42:49;3.45;;;2.53;;
42714;SDS011;28351;51.480;5.706;2022-10-16T06:45:15;7.82;;;2.47;;
42714;SDS011;28351;51.480;5.706;2022-10-16T06:47:40;4.03;;;2.47;;
42714;SDS011;28351;51.480;5.706;2022-10-16T06:50:06;4.05;;;2.60;;
42714;SDS011;28351;51.480;5.706;2022-10-16T06:52:33;5.53;;;2.72;;
42714;SDS011;28351;51.480;5.706;2022-10-16T06:54:59;2.80;;;2.28;;
42714;SDS011;28351;51.480;5.706;2022-10-16T06:57:25;4.43;;;2.50;;
42714;SDS011;28351;51.480;5.706;2022-10-16T06:59:50;3.53;;;2.35;;
42714;SDS011;28351;51.480;5.706;2022-10-16T07:02:16;8.13;;;2.70;;
42714;SDS011;28351;51.480;5.706;2022-10-16T07:04:42;7.40;;;2.88;;
42714;SDS011;28351;51.480;5.706;2022-10-16T07:07:07;4.25;;;2.38;;
42714;SDS011;28351;51.480;5.706;2022-10-16T07:09:33;3.03;;;2.38;;
42714;SDS011;28351;51.480;5.706;2022-10-16T07:11:58;6.35;;;2.67;;
42714;SDS011;28351;51.480;5.706;2022-10-16T07:14:24;4.63;;;3.08;;
42714;SDS011;28351;51.480;5.706;2022-10-16T07:16:50;6.65;;;3.08;;
42714;SDS011;28351;51.480;5.706;2022-10-16T07:19:15;3.58;;;2.75;;
42714;SDS011;28351;51.480;5.706;2022-10-16T07:21:42;6.30;;;3.47;;
42714;SDS011;28351;51.480;5.706;2022-10-16T07:24:12;7.18;;;3.72;;
42714;SDS011;28351;51.480;5.706;2022-10-16T07:26:40;7.18;;;4.00;;
42714;SDS011;28351;51.480;5.706;2022-10-16T07:29:10;6.75;;;3.50;;
42714;SDS011;28351;51.480;5.706;2022-10-16T07:31:38;7.93;;;3.33;;
42714;SDS011;28351;51.480;5.706;2022-10-16T07:34:05;3.50;;;3.00;;
42714;SDS011;28351;51.480;5.706;2022-10-16T07:36:31;5.10;;;3.03;;
42714;SDS011;28351;51.480;5.706;2022-10-16T07:38:56;5.25;;;2.95;;
42714;SDS011;28351;51.480;5.706;2022-10-16T07:41:22;5.15;;;2.88;;
42714;SDS011;28351;51.480;5.706;2022-10-16T07:43:49;7.25;;;2.70;;
42714;SDS011;28351;51.480;5.706;2022-10-16T07:46:16;6.82;;;3.05;;
42714;SDS011;28351;51.480;5.706;2022-10-16T07:48:42;3.40;;;2.35;;
42714;SDS011;28351;51.480;5.706;2022-10-16T07:51:11;4.57;;;3.17;;
42714;SDS011;28351;51.480;5.706;2022-10-16T07:53:37;5.43;;;2.50;;
42714;SDS011;28351;51.480;5.706;2022-10-16T07:56:03;6.90;;;3.00;;
42714;SDS011;28351;51.480;5.706;2022-10-16T07:58:31;5.83;;;2.63;;
42714;SDS011;28351;51.480;5.706;2022-10-16T08:00:58;6.15;;;2.53;;
42714;SDS011;28351;51.480;5.706;2022-10-16T08:03:24;3.88;;;2.58;;
42714;SDS011;28351;51.480;5.706;2022-10-16T08:05:50;4.45;;;2.42;;
42714;SDS011;28351;51.480;5.706;2022-10-16T08:08:16;7.13;;;2.38;;
42714;SDS011;28351;51.480;5.706;2022-10-16T08:10:43;4.53;;;2.30;;
42714;SDS011;28351;51.480;5.706;2022-10-16T08:13:09;4.85;;;1.95;;
42714;SDS011;28351;51.480;5.706;2022-10-16T08:15:35;3.13;;;2.25;;
42714;SDS011;28351;51.480;5.706;2022-10-16T08:18:01;4.15;;;2.60;;
42714;SDS011;28351;51.480;5.706;2022-10-16T08:20:28;3.38;;;2.50;;
42714;SDS011;28351;51.480;5.706;2022-10-16T08:22:58;2.20;;;1.98;;
42714;SDS011;28351;51.480;5.706;2022-10-16T08:25:25;4.40;;;2.15;;
42714;SDS011;28351;51.480;5.706;2022-10-16T08:27:51;3.42;;;1.88;;
42714;SDS011;28351;51.480;5.706;2022-10-16T08:30:17;3.17;;;1.70;;
42714;SDS011;28351;51.480;5.706;2022-10-16T08:32:44;6.73;;;1.90;;
42714;SDS011;28351;51.480;5.706;2022-10-16T08:35:10;2.15;;;1.48;;
42714;SDS011;28351;51.480;5.706;2022-10-16T08:37:37;4.22;;;1.92;;
42714;SDS011;28351;51.480;5.706;2022-10-16T08:40:04;5.28;;;1.55;;
42714;SDS011;28351;51.480;5.706;2022-10-16T08:48:14;5.40;;;1.90;;
42714;SDS011;28351;51.480;5.706;2022-10-16T08:50:45;3.95;;;1.67;;
42714;SDS011;28351;51.480;5.706;2022-10-16T08:53:15;4.00;;;1.45;;
42714;SDS011;28351;51.480;5.706;2022-10-16T08:55:49;3.92;;;1.80;;
42714;SDS011;28351;51.480;5.706;2022-10-16T08:58:17;1.85;;;1.42;;
42714;SDS011;28351;51.480;5.706;2022-10-16T09:00:55;1.92;;;1.20;;
42714;SDS011;28351;51.480;5.706;2022-10-16T09:14:20;2.20;;;1.35;;
42714;SDS011;28351;51.480;5.706;2022-10-16T09:17:14;2.20;;;1.42;;
42714;SDS011;28351;51.480;5.706;2022-10-16T09:19:54;3.22;;;1.30;;
42714;SDS011;28351;51.480;5.706;2022-10-16T09:22:36;4.18;;;1.77;;
42714;SDS011;28351;51.480;5.706;2022-10-16T09:25:10;2.28;;;1.25;;
42714;SDS011;28351;51.480;5.706;2022-10-16T09:27:48;4.93;;;1.20;;
42714;SDS011;28351;51.480;5.706;2022-10-16T09:30:17;3.65;;;1.27;;
42714;SDS011;28351;51.480;5.706;2022-10-16T09:32:45;4.63;;;1.40;;
42714;SDS011;28351;51.480;5.706;2022-10-16T09:35:14;3.65;;;1.25;;
42714;SDS011;28351;51.480;5.706;2022-10-16T09:37:58;3.25;;;1.05;;
42714;SDS011;28351;51.480;5.706;2022-10-16T09:40:28;7.45;;;1.58;;
42714;SDS011;28351;51.480;5.706;2022-10-16T09:43:12;2.90;;;1.08;;
42714;SDS011;28351;51.480;5.706;2022-10-16T09:48:44;4.47;;;1.23;;
42714;SDS011;28351;51.480;5.706;2022-10-16T09:51:21;3.28;;;1.30;;
42714;SDS011;28351;51.480;5.706;2022-10-16T09:56:34;5.25;;;1.27;;
42714;SDS011;28351;51.480;5.706;2022-10-16T09:59:17;3.95;;;0.95;;
42714;SDS011;28351;51.480;5.706;2022-10-16T10:01:47;4.57;;;1.15;;
42714;SDS011;28351;51.480;5.706;2022-10-16T10:04:15;3.00;;;1.17;;
42714;SDS011;28351;51.480;5.706;2022-10-16T10:06:49;3.35;;;1.15;;
42714;SDS011;28351;51.480;5.706;2022-10-16T10:11:48;1.98;;;0.90;;
42714;SDS011;28351;51.480;5.706;2022-10-16T10:16:41;3.10;;;0.98;;
42714;SDS011;28351;51.480;5.706;2022-10-16T10:36:16;2.85;;;0.98;;
42714;SDS011;28351;51.480;5.706;2022-10-16T10:39:07;3.65;;;1.00;;
42714;SDS011;28351;51.480;5.706;2022-10-16T10:47:22;7.05;;;1.10;;
42714;SDS011;28351;51.480;5.706;2022-10-16T10:52:53;3.95;;;1.10;;
42714;SDS011;28351;51.480;5.706;2022-10-16T10:55:40;5.43;;;1.00;;
42714;SDS011;28351;51.480;5.706;2022-10-16T10:58:24;2.85;;;0.95;;
42714;SDS011;28351;51.480;5.706;2022-10-16T11:06:32;3.72;;;1.00;;
42714;SDS011;28351;51.480;5.706;2022-10-16T11:09:15;4.30;;;1.10;;
42714;SDS011;28351;51.480;5.706;2022-10-16T11:11:52;4.47;;;1.90;;
42714;SDS011;28351;51.480;5.706;2022-10-16T11:14:35;3.10;;;1.30;;
42714;SDS011;28351;51.480;5.706;2022-10-16T11:17:11;4.05;;;1.48;;
42714;SDS011;28351;51.480;5.706;2022-10-16T11:20:11;9.40;;;1.20;;
42714;SDS011;28351;51.480;5.706;2022-10-16T11:22:54;4.80;;;1.23;;
42714;SDS011;28351;51.480;5.706;2022-10-16T11:25:26;5.32;;;1.35;;
42714;SDS011;28351;51.480;5.706;2022-10-16T11:28:07;2.95;;;1.15;;
42714;SDS011;28351;51.480;5.706;2022-10-16T11:31:08;4.30;;;0.95;;
42714;SDS011;28351;51.480;5.706;2022-10-16T11:33:54;4.32;;;0.90;;
42714;SDS011;28351;51.480;5.706;2022-10-16T11:36:25;4.85;;;1.13;;
42714;SDS011;28351;51.480;5.706;2022-10-16T11:38:59;4.45;;;1.20;;
42714;SDS011;28351;51.480;5.706;2022-10-16T11:41:52;5.95;;;1.25;;
42714;SDS011;28351;51.480;5.706;2022-10-16T11:44:39;4.00;;;1.00;;
42714;SDS011;28351;51.480;5.706;2022-10-16T11:47:24;1.13;;;0.70;;
42714;SDS011;28351;51.480;5.706;2022-10-16T11:49:52;5.57;;;1.15;;
42714;SDS011;28351;51.480;5.706;2022-10-16T11:52:25;4.40;;;1.10;;
